Aviation Digital Data Service (ADDS)

Output produced by TAFs form (0628 UTC 15 December 2017)
found at http://www.aviationweather.gov/adds/tafs/
 
KMGM 150553Z AUTO 00000KT 10SM CLR 05/03 A3003 RMK AO2 SLP168 T00500028 10106 20039 401500006 50002 $
KMGM 150525Z 1506/1606 00000KT P6SM BKN250 
     FM151500 32008KT P6SM BKN250 
     FM160000 32003KT P6SM BKN250